sensor_id;sensor_type;location;lat;lon;timestamp;P1;durP1;ratioP1;P2;durP2;ratioP2
33902;SDS011;20194;50.950;5.346;2022-12-18T00:02:04;82.63;;;28.85;;
33902;SDS011;20194;50.950;5.346;2022-12-18T00:04:30;83.07;;;27.30;;
33902;SDS011;20194;50.950;5.346;2022-12-18T00:06:56;79.28;;;28.27;;
33902;SDS011;20194;50.950;5.346;2022-12-18T00:09:22;85.47;;;29.63;;
33902;SDS011;20194;50.950;5.346;2022-12-18T00:11:47;92.32;;;31.02;;
33902;SDS011;20194;50.950;5.346;2022-12-18T00:14:13;78.05;;;28.02;;
33902;SDS011;20194;50.950;5.346;2022-12-18T00:16:40;74.80;;;27.42;;
33902;SDS011;20194;50.950;5.346;2022-12-18T00:19:09;81.00;;;28.23;;
33902;SDS011;20194;50.950;5.346;2022-12-18T00:21:35;81.53;;;27.08;;
33902;SDS011;20194;50.950;5.346;2022-12-18T00:24:00;77.60;;;26.80;;
33902;SDS011;20194;50.950;5.346;2022-12-18T00:26:30;79.53;;;26.05;;
33902;SDS011;20194;50.950;5.346;2022-12-18T00:29:03;71.70;;;26.55;;
33902;SDS011;20194;50.950;5.346;2022-12-18T00:31:38;81.85;;;26.33;;
33902;SDS011;20194;50.950;5.346;2022-12-18T00:34:04;81.78;;;28.17;;
33902;SDS011;20194;50.950;5.346;2022-12-18T00:36:31;79.38;;;27.67;;
33902;SDS011;20194;50.950;5.346;2022-12-18T00:38:59;75.38;;;25.58;;
33902;SDS011;20194;50.950;5.346;2022-12-18T00:41:26;78.53;;;26.70;;
33902;SDS011;20194;50.950;5.346;2022-12-18T00:44:12;85.07;;;28.67;;
33902;SDS011;20194;50.950;5.346;2022-12-18T00:46:39;85.00;;;27.35;;
33902;SDS011;20194;50.950;5.346;2022-12-18T00:49:05;79.85;;;27.65;;
33902;SDS011;20194;50.950;5.346;2022-12-18T00:51:31;72.43;;;24.27;;
33902;SDS011;20194;50.950;5.346;2022-12-18T00:53:57;72.95;;;24.92;;
33902;SDS011;20194;50.950;5.346;2022-12-18T00:56:23;68.38;;;24.65;;
33902;SDS011;20194;50.950;5.346;2022-12-18T00:58:49;70.78;;;24.00;;
33902;SDS011;20194;50.950;5.346;2022-12-18T01:01:15;68.70;;;25.13;;
33902;SDS011;20194;50.950;5.346;2022-12-18T01:03:41;66.20;;;23.38;;
33902;SDS011;20194;50.950;5.346;2022-12-18T01:06:07;58.67;;;22.83;;
33902;SDS011;20194;50.950;5.346;2022-12-18T01:08:35;66.70;;;23.92;;
33902;SDS011;20194;50.950;5.346;2022-12-18T01:11:06;62.92;;;23.00;;
33902;SDS011;20194;50.950;5.346;2022-12-18T01:13:37;67.60;;;22.63;;
33902;SDS011;20194;50.950;5.346;2022-12-18T01:16:03;63.38;;;23.52;;
33902;SDS011;20194;50.950;5.346;2022-12-18T01:18:29;62.85;;;24.52;;
33902;SDS011;20194;50.950;5.346;2022-12-18T01:20:54;66.43;;;22.30;;
33902;SDS011;20194;50.950;5.346;2022-12-18T01:23:20;59.63;;;22.52;;
33902;SDS011;20194;50.950;5.346;2022-12-18T01:25:46;66.45;;;23.50;;
33902;SDS011;20194;50.950;5.346;2022-12-18T01:28:11;66.20;;;22.02;;
33902;SDS011;20194;50.950;5.346;2022-12-18T01:30:37;65.88;;;22.90;;
33902;SDS011;20194;50.950;5.346;2022-12-18T01:33:06;65.18;;;21.83;;
33902;SDS011;20194;50.950;5.346;2022-12-18T01:35:31;62.83;;;22.10;;
33902;SDS011;20194;50.950;5.346;2022-12-18T01:37:57;67.38;;;22.70;;
33902;SDS011;20194;50.950;5.346;2022-12-18T01:40:23;68.35;;;25.55;;
33902;SDS011;20194;50.950;5.346;2022-12-18T01:42:50;57.10;;;21.98;;
33902;SDS011;20194;50.950;5.346;2022-12-18T01:45:24;49.05;;;20.08;;
33902;SDS011;20194;50.950;5.346;2022-12-18T01:48:10;62.58;;;21.77;;
33902;SDS011;20194;50.950;5.346;2022-12-18T01:50:38;66.03;;;21.70;;
33902;SDS011;20194;50.950;5.346;2022-12-18T01:53:13;67.60;;;24.67;;
33902;SDS011;20194;50.950;5.346;2022-12-18T01:55:51;64.10;;;21.85;;
33902;SDS011;20194;50.950;5.346;2022-12-18T01:58:20;67.60;;;22.30;;
33902;SDS011;20194;50.950;5.346;2022-12-18T02:00:55;64.32;;;23.83;;
33902;SDS011;20194;50.950;5.346;2022-12-18T02:03:20;65.50;;;23.70;;
33902;SDS011;20194;50.950;5.346;2022-12-18T02:05:52;73.40;;;24.48;;
33902;SDS011;20194;50.950;5.346;2022-12-18T02:08:26;61.17;;;21.77;;
33902;SDS011;20194;50.950;5.346;2022-12-18T02:14:04;56.17;;;20.42;;
33902;SDS011;20194;50.950;5.346;2022-12-18T02:16:38;57.67;;;22.02;;
33902;SDS011;20194;50.950;5.346;2022-12-18T02:27:39;68.57;;;21.17;;
33902;SDS011;20194;50.950;5.346;2022-12-18T02:30:09;67.10;;;21.27;;
33902;SDS011;20194;50.950;5.346;2022-12-18T02:32:40;66.25;;;21.33;;
33902;SDS011;20194;50.950;5.346;2022-12-18T02:35:16;66.10;;;21.85;;
33902;SDS011;20194;50.950;5.346;2022-12-18T02:37:48;62.70;;;21.85;;
33902;SDS011;20194;50.950;5.346;2022-12-18T02:40:15;63.25;;;21.25;;
33902;SDS011;20194;50.950;5.346;2022-12-18T02:42:43;56.08;;;19.92;;
33902;SDS011;20194;50.950;5.346;2022-12-18T02:45:09;58.33;;;23.15;;
33902;SDS011;20194;50.950;5.346;2022-12-18T02:47:39;62.40;;;20.40;;
33902;SDS011;20194;50.950;5.346;2022-12-18T02:50:09;64.35;;;20.25;;
33902;SDS011;20194;50.950;5.346;2022-12-18T02:53:39;57.42;;;21.63;;
33902;SDS011;20194;50.950;5.346;2022-12-18T02:56:01;61.40;;;21.42;;
33902;SDS011;20194;50.950;5.346;2022-12-18T03:01:17;61.22;;;20.80;;
33902;SDS011;20194;50.950;5.346;2022-12-18T03:03:56;58.60;;;19.98;;
33902;SDS011;20194;50.950;5.346;2022-12-18T03:06:28;63.17;;;20.02;;
33902;SDS011;20194;50.950;5.346;2022-12-18T03:09:00;63.40;;;20.55;;
33902;SDS011;20194;50.950;5.346;2022-12-18T03:11:32;60.17;;;19.60;;
33902;SDS011;20194;50.950;5.346;2022-12-18T03:14:21;56.95;;;20.10;;
33902;SDS011;20194;50.950;5.346;2022-12-18T03:16:50;52.63;;;18.17;;
33902;SDS011;20194;50.950;5.346;2022-12-18T03:19:21;46.85;;;18.58;;
33902;SDS011;20194;50.950;5.346;2022-12-18T03:21:49;54.03;;;18.77;;
33902;SDS011;20194;50.950;5.346;2022-12-18T03:24:19;43.20;;;17.65;;
33902;SDS011;20194;50.950;5.346;2022-12-18T03:26:47;57.83;;;18.30;;
33902;SDS011;20194;50.950;5.346;2022-12-18T03:29:19;61.35;;;20.27;;
33902;SDS011;20194;50.950;5.346;2022-12-18T03:32:07;51.22;;;19.20;;
33902;SDS011;20194;50.950;5.346;2022-12-18T03:34:37;48.10;;;17.67;;
33902;SDS011;20194;50.950;5.346;2022-12-18T03:37:05;56.03;;;19.35;;
33902;SDS011;20194;50.950;5.346;2022-12-18T03:39:32;51.30;;;18.45;;
33902;SDS011;20194;50.950;5.346;2022-12-18T03:42:04;51.45;;;18.58;;
33902;SDS011;20194;50.950;5.346;2022-12-18T03:47:53;56.40;;;19.25;;
33902;SDS011;20194;50.950;5.346;2022-12-18T03:55:47;58.33;;;18.98;;
33902;SDS011;20194;50.950;5.346;2022-12-18T03:58:16;54.75;;;18.70;;
33902;SDS011;20194;50.950;5.346;2022-12-18T04:00:46;48.00;;;16.95;;
33902;SDS011;20194;50.950;5.346;2022-12-18T04:03:14;50.00;;;18.20;;
33902;SDS011;20194;50.950;5.346;2022-12-18T04:05:42;44.08;;;17.52;;
33902;SDS011;20194;50.950;5.346;2022-12-18T04:08:08;51.78;;;17.90;;
33902;SDS011;20194;50.950;5.346;2022-12-18T04:10:34;45.90;;;17.45;;
33902;SDS011;20194;50.950;5.346;2022-12-18T04:13:01;51.80;;;19.30;;
33902;SDS011;20194;50.950;5.346;2022-12-18T04:15:26;49.33;;;17.92;;
33902;SDS011;20194;50.950;5.346;2022-12-18T04:17:52;47.30;;;16.88;;
33902;SDS011;20194;50.950;5.346;2022-12-18T04:20:17;52.75;;;17.17;;
33902;SDS011;20194;50.950;5.346;2022-12-18T04:22:43;51.13;;;18.23;;
33902;SDS011;20194;50.950;5.346;2022-12-18T04:25:12;54.83;;;18.23;;
33902;SDS011;20194;50.950;5.346;2022-12-18T04:27:38;54.85;;;17.52;;
33902;SDS011;20194;50.950;5.346;2022-12-18T04:30:04;49.45;;;18.27;;
33902;SDS011;20194;50.950;5.346;2022-12-18T04:32:30;56.17;;;18.35;;
33902;SDS011;20194;50.950;5.346;2022-12-18T04:34:58;49.85;;;17.30;;
33902;SDS011;20194;50.950;5.346;2022-12-18T04:37:23;46.20;;;17.13;;
33902;SDS011;20194;50.950;5.346;2022-12-18T04:39:49;56.08;;;18.52;;
33902;SDS011;20194;50.950;5.346;2022-12-18T04:42:14;49.17;;;17.83;;
33902;SDS011;20194;50.950;5.346;2022-12-18T04:44:40;49.90;;;18.75;;
33902;SDS011;20194;50.950;5.346;2022-12-18T04:47:06;60.40;;;19.60;;
33902;SDS011;20194;50.950;5.346;2022-12-18T04:49:32;52.03;;;18.15;;
33902;SDS011;20194;50.950;5.346;2022-12-18T04:51:58;53.75;;;18.02;;
33902;SDS011;20194;50.950;5.346;2022-12-18T04:54:23;52.03;;;19.60;;
33902;SDS011;20194;50.950;5.346;2022-12-18T04:56:50;53.50;;;17.38;;
33902;SDS011;20194;50.950;5.346;2022-12-18T04:59:16;55.00;;;18.50;;
33902;SDS011;20194;50.950;5.346;2022-12-18T05:01:41;50.00;;;18.63;;
33902;SDS011;20194;50.950;5.346;2022-12-18T05:04:07;47.58;;;17.60;;
33902;SDS011;20194;50.950;5.346;2022-12-18T05:06:33;43.47;;;17.23;;
33902;SDS011;20194;50.950;5.346;2022-12-18T05:08:59;49.28;;;17.92;;
33902;SDS011;20194;50.950;5.346;2022-12-18T05:11:25;48.60;;;18.50;;
33902;SDS011;20194;50.950;5.346;2022-12-18T05:13:50;47.22;;;17.30;;
33902;SDS011;20194;50.950;5.346;2022-12-18T05:16:16;45.88;;;15.57;;
33902;SDS011;20194;50.950;5.346;2022-12-18T05:18:42;47.28;;;16.67;;
33902;SDS011;20194;50.950;5.346;2022-12-18T05:21:07;51.55;;;16.55;;
33902;SDS011;20194;50.950;5.346;2022-12-18T05:23:33;44.63;;;16.83;;
33902;SDS011;20194;50.950;5.346;2022-12-18T05:26:00;45.40;;;15.95;;
33902;SDS011;20194;50.950;5.346;2022-12-18T05:28:27;42.42;;;15.88;;
33902;SDS011;20194;50.950;5.346;2022-12-18T05:30:56;43.55;;;16.05;;
33902;SDS011;20194;50.950;5.346;2022-12-18T05:33:25;35.70;;;15.45;;
33902;SDS011;20194;50.950;5.346;2022-12-18T05:35:54;39.60;;;15.52;;
33902;SDS011;20194;50.950;5.346;2022-12-18T05:38:21;43.17;;;15.90;;
33902;SDS011;20194;50.950;5.346;2022-12-18T05:40:48;45.75;;;15.75;;
33902;SDS011;20194;50.950;5.346;2022-12-18T05:43:14;38.53;;;14.75;;
33902;SDS011;20194;50.950;5.346;2022-12-18T05:45:41;34.88;;;14.55;;
33902;SDS011;20194;50.950;5.346;2022-12-18T05:48:08;42.28;;;15.40;;
33902;SDS011;20194;50.950;5.346;2022-12-18T05:50:38;41.40;;;14.82;;
33902;SDS011;20194;50.950;5.346;2022-12-18T05:53:05;42.88;;;14.73;;
33902;SDS011;20194;50.950;5.346;2022-12-18T05:55:34;38.88;;;14.65;;
33902;SDS011;20194;50.950;5.346;2022-12-18T05:58:02;34.50;;;14.20;;
33902;SDS011;20194;50.950;5.346;2022-12-18T06:00:29;44.03;;;15.30;;
33902;SDS011;20194;50.950;5.346;2022-12-18T06:02:55;39.20;;;15.00;;
33902;SDS011;20194;50.950;5.346;2022-12-18T06:05:21;36.10;;;14.60;;
33902;SDS011;20194;50.950;5.346;2022-12-18T06:07:46;37.17;;;13.70;;
33902;SDS011;20194;50.950;5.346;2022-12-18T06:10:12;39.58;;;14.80;;
33902;SDS011;20194;50.950;5.346;2022-12-18T06:12:37;37.25;;;13.73;;
33902;SDS011;20194;50.950;5.346;2022-12-18T06:15:03;36.97;;;14.55;;
33902;SDS011;20194;50.950;5.346;2022-12-18T06:17:30;32.13;;;12.82;;
33902;SDS011;20194;50.950;5.346;2022-12-18T06:19:56;34.95;;;15.20;;
33902;SDS011;20194;50.950;5.346;2022-12-18T06:22:22;34.20;;;13.80;;
33902;SDS011;20194;50.950;5.346;2022-12-18T06:24:48;25.75;;;11.98;;
33902;SDS011;20194;50.950;5.346;2022-12-18T06:27:13;34.33;;;12.52;;
33902;SDS011;20194;50.950;5.346;2022-12-18T06:29:40;35.88;;;12.77;;
33902;SDS011;20194;50.950;5.346;2022-12-18T06:32:05;32.40;;;13.95;;
33902;SDS011;20194;50.950;5.346;2022-12-18T06:34:32;43.17;;;13.15;;
33902;SDS011;20194;50.950;5.346;2022-12-18T06:36:58;34.35;;;12.45;;
33902;SDS011;20194;50.950;5.346;2022-12-18T06:39:24;33.30;;;12.32;;
33902;SDS011;20194;50.950;5.346;2022-12-18T06:41:49;32.50;;;13.18;;
33902;SDS011;20194;50.950;5.346;2022-12-18T06:44:15;33.65;;;12.52;;
33902;SDS011;20194;50.950;5.346;2022-12-18T06:46:41;28.35;;;12.45;;
33902;SDS011;20194;50.950;5.346;2022-12-18T06:49:06;32.72;;;13.60;;
33902;SDS011;20194;50.950;5.346;2022-12-18T06:51:34;30.95;;;11.38;;
33902;SDS011;20194;50.950;5.346;2022-12-18T06:53:59;30.08;;;12.18;;
33902;SDS011;20194;50.950;5.346;2022-12-18T06:56:25;31.42;;;11.70;;
33902;SDS011;20194;50.950;5.346;2022-12-18T06:58:51;31.27;;;11.52;;
33902;SDS011;20194;50.950;5.346;2022-12-18T07:01:17;28.63;;;11.85;;
33902;SDS011;20194;50.950;5.346;2022-12-18T07:03:42;29.55;;;13.23;;
33902;SDS011;20194;50.950;5.346;2022-12-18T07:06:18;30.27;;;11.40;;
33902;SDS011;20194;50.950;5.346;2022-12-18T07:08:46;32.33;;;11.55;;
33902;SDS011;20194;50.950;5.346;2022-12-18T07:11:13;33.53;;;12.23;;
33902;SDS011;20194;50.950;5.346;2022-12-18T07:13:39;35.92;;;12.05;;
33902;SDS011;20194;50.950;5.346;2022-12-18T07:16:09;25.83;;;11.45;;
33902;SDS011;20194;50.950;5.346;2022-12-18T07:18:39;25.55;;;11.23;;
33902;SDS011;20194;50.950;5.346;2022-12-18T07:21:06;27.40;;;10.13;;
33902;SDS011;20194;50.950;5.346;2022-12-18T07:23:33;24.95;;;10.68;;
33902;SDS011;20194;50.950;5.346;2022-12-18T07:26:01;33.47;;;11.38;;
33902;SDS011;20194;50.950;5.346;2022-12-18T07:28:28;33.05;;;12.00;;
33902;SDS011;20194;50.950;5.346;2022-12-18T07:30:54;22.17;;;10.45;;
33902;SDS011;20194;50.950;5.346;2022-12-18T07:33:19;23.65;;;11.65;;
33902;SDS011;20194;50.950;5.346;2022-12-18T07:35:45;28.40;;;11.65;;
33902;SDS011;20194;50.950;5.346;2022-12-18T07:38:11;28.65;;;11.88;;
33902;SDS011;20194;50.950;5.346;2022-12-18T07:40:36;28.38;;;11.00;;
33902;SDS011;20194;50.950;5.346;2022-12-18T07:43:02;25.50;;;11.32;;
33902;SDS011;20194;50.950;5.346;2022-12-18T07:45:27;31.27;;;10.60;;
33902;SDS011;20194;50.950;5.346;2022-12-18T07:47:53;26.52;;;11.10;;
33902;SDS011;20194;50.950;5.346;2022-12-18T07:50:19;27.95;;;10.45;;
33902;SDS011;20194;50.950;5.346;2022-12-18T07:52:45;28.00;;;11.85;;
33902;SDS011;20194;50.950;5.346;2022-12-18T07:55:11;32.72;;;11.75;;
33902;SDS011;20194;50.950;5.346;2022-12-18T07:57:37;25.88;;;10.20;;
33902;SDS011;20194;50.950;5.346;2022-12-18T08:00:03;27.13;;;9.90;;
33902;SDS011;20194;50.950;5.346;2022-12-18T08:02:32;26.55;;;10.57;;
33902;SDS011;20194;50.950;5.346;2022-12-18T08:04:58;30.42;;;10.85;;
33902;SDS011;20194;50.950;5.346;2022-12-18T08:07:23;33.15;;;11.50;;
33902;SDS011;20194;50.950;5.346;2022-12-18T08:09:49;31.52;;;11.65;;
33902;SDS011;20194;50.950;5.346;2022-12-18T08:12:15;25.55;;;11.02;;
33902;SDS011;20194;50.950;5.346;2022-12-18T08:14:40;27.75;;;10.98;;
33902;SDS011;20194;50.950;5.346;2022-12-18T08:17:06;28.70;;;10.35;;
33902;SDS011;20194;50.950;5.346;2022-12-18T08:19:31;28.88;;;10.90;;
33902;SDS011;20194;50.950;5.346;2022-12-18T08:21:57;29.63;;;10.20;;
33902;SDS011;20194;50.950;5.346;2022-12-18T08:24:23;29.05;;;11.95;;
33902;SDS011;20194;50.950;5.346;2022-12-18T08:26:48;28.48;;;12.45;;
33902;SDS011;20194;50.950;5.346;2022-12-18T08:29:14;38.85;;;12.13;;
33902;SDS011;20194;50.950;5.346;2022-12-18T08:31:40;34.53;;;13.18;;
33902;SDS011;20194;50.950;5.346;2022-12-18T08:34:07;31.27;;;13.73;;
33902;SDS011;20194;50.950;5.346;2022-12-18T08:36:33;34.38;;;12.07;;
33902;SDS011;20194;50.950;5.346;2022-12-18T08:38:59;26.88;;;11.73;;
33902;SDS011;20194;50.950;5.346;2022-12-18T08:41:24;31.27;;;12.82;;
33902;SDS011;20194;50.950;5.346;2022-12-18T08:43:50;35.45;;;12.65;;
33902;SDS011;20194;50.950;5.346;2022-12-18T08:46:36;32.40;;;13.25;;
33902;SDS011;20194;50.950;5.346;2022-12-18T08:49:07;35.55;;;12.70;;
33902;SDS011;20194;50.950;5.346;2022-12-18T08:51:33;35.53;;;12.50;;
33902;SDS011;20194;50.950;5.346;2022-12-18T08:54:00;29.38;;;12.68;;
33902;SDS011;20194;50.950;5.346;2022-12-18T08:56:26;35.65;;;12.05;;
33902;SDS011;20194;50.950;5.346;2022-12-18T08:58:52;36.17;;;12.85;;
33902;SDS011;20194;50.950;5.346;2022-12-18T09:01:19;29.63;;;13.20;;
33902;SDS011;20194;50.950;5.346;2022-12-18T09:03:45;33.42;;;13.70;;
33902;SDS011;20194;50.950;5.346;2022-12-18T09:06:13;34.13;;;13.23;;
33902;SDS011;20194;50.950;5.346;2022-12-18T09:08:40;35.08;;;12.98;;
33902;SDS011;20194;50.950;5.346;2022-12-18T09:11:40;36.17;;;14.30;;
33902;SDS011;20194;50.950;5.346;2022-12-18T09:13:59;39.47;;;14.38;;
33902;SDS011;20194;50.950;5.346;2022-12-18T09:16:26;34.28;;;13.27;;
33902;SDS011;20194;50.950;5.346;2022-12-18T09:18:54;37.70;;;14.27;;
33902;SDS011;20194;50.950;5.346;2022-12-18T09:21:24;38.40;;;13.77;;
33902;SDS011;20194;50.950;5.346;2022-12-18T09:23:51;39.67;;;14.27;;
33902;SDS011;20194;50.950;5.346;2022-12-18T09:26:18;33.45;;;13.38;;
33902;SDS011;20194;50.950;5.346;2022-12-18T09:28:44;35.08;;;14.30;;
33902;SDS011;20194;50.950;5.346;2022-12-18T09:31:10;36.90;;;14.93;;
33902;SDS011;20194;50.950;5.346;2022-12-18T09:33:40;37.28;;;14.27;;
33902;SDS011;20194;50.950;5.346;2022-12-18T09:36:06;32.60;;;13.05;;
33902;SDS011;20194;50.950;5.346;2022-12-18T09:38:34;30.15;;;13.95;;
33902;SDS011;20194;50.950;5.346;2022-12-18T09:41:04;38.22;;;14.15;;
33902;SDS011;20194;50.950;5.346;2022-12-18T09:44:00;33.25;;;14.02;;
33902;SDS011;20194;50.950;5.346;2022-12-18T09:46:31;35.75;;;13.10;;
33902;SDS011;20194;50.950;5.346;2022-12-18T09:49:00;30.17;;;13.65;;
33902;SDS011;20194;50.950;5.346;2022-12-18T09:51:32;30.92;;;13.35;;
33902;SDS011;20194;50.950;5.346;2022-12-18T09:54:12;38.10;;;14.18;;
33902;SDS011;20194;50.950;5.346;2022-12-18T09:57:00;32.30;;;13.45;;
33902;SDS011;20194;50.950;5.346;2022-12-18T10:01:56;35.42;;;14.20;;
33902;SDS011;20194;50.950;5.346;2022-12-18T10:04:21;37.65;;;15.23;;
33902;SDS011;20194;50.950;5.346;2022-12-18T10:06:53;31.13;;;14.30;;
33902;SDS011;20194;50.950;5.346;2022-12-18T10:09:33;36.60;;;15.60;;
33902;SDS011;20194;50.950;5.346;2022-12-18T10:12:21;32.45;;;13.02;;
33902;SDS011;20194;50.950;5.346;2022-12-18T10:20:38;38.28;;;16.65;;
33902;SDS011;20194;50.950;5.346;2022-12-18T10:25:55;33.45;;;14.93;;
33902;SDS011;20194;50.950;5.346;2022-12-18T10:28:33;36.75;;;16.02;;
33902;SDS011;20194;50.950;5.346;2022-12-18T10:31:01;34.88;;;15.50;;
33902;SDS011;20194;50.950;5.346;2022-12-18T10:33:30;32.85;;;15.50;;
33902;SDS011;20194;50.950;5.346;2022-12-18T10:35:58;33.78;;;14.43;;
33902;SDS011;20194;50.950;5.346;2022-12-18T10:38:28;36.58;;;15.82;;
33902;SDS011;20194;50.950;5.346;2022-12-18T10:41:29;30.45;;;14.32;;
33902;SDS011;20194;50.950;5.346;2022-12-18T10:44:10;30.98;;;13.98;;
33902;SDS011;20194;50.950;5.346;2022-12-18T10:46:40;33.70;;;13.90;;
33902;SDS011;20194;50.950;5.346;2022-12-18T10:49:07;29.90;;;14.00;;
33902;SDS011;20194;50.950;5.346;2022-12-18T10:51:46;33.40;;;14.15;;
33902;SDS011;20194;50.950;5.346;2022-12-18T10:54:30;32.78;;;13.52;;
33902;SDS011;20194;50.950;5.346;2022-12-18T10:57:14;27.05;;;13.20;;
33902;SDS011;20194;50.950;5.346;2022-12-18T11:02:54;24.92;;;11.45;;
33902;SDS011;20194;50.950;5.346;2022-12-18T11:07:57;33.03;;;13.75;;
33902;SDS011;20194;50.950;5.346;2022-12-18T11:10:35;32.88;;;14.43;;
33902;SDS011;20194;50.950;5.346;2022-12-18T11:13:18;34.40;;;14.35;;
33902;SDS011;20194;50.950;5.346;2022-12-18T11:15:46;31.67;;;13.13;;
33902;SDS011;20194;50.950;5.346;2022-12-18T11:18:25;31.05;;;13.23;;
33902;SDS011;20194;50.950;5.346;2022-12-18T11:20:57;28.52;;;13.40;;
33902;SDS011;20194;50.950;5.346;2022-12-18T11:23:30;26.92;;;12.93;;
33902;SDS011;20194;50.950;5.346;2022-12-18T11:25:57;36.80;;;13.60;;
33902;SDS011;20194;50.950;5.346;2022-12-18T11:28:35;35.92;;;13.52;;
33902;SDS011;20194;50.950;5.346;2022-12-18T11:34:11;33.05;;;12.98;;
33902;SDS011;20194;50.950;5.346;2022-12-18T11:36:47;33.08;;;13.75;;
33902;SDS011;20194;50.950;5.346;2022-12-18T11:39:30;30.75;;;12.23;;
33902;SDS011;20194;50.950;5.346;2022-12-18T11:42:12;32.72;;;12.40;;
33902;SDS011;20194;50.950;5.346;2022-12-18T11:45:01;29.95;;;12.82;;
33902;SDS011;20194;50.950;5.346;2022-12-18T11:47:49;33.53;;;14.13;;
33902;SDS011;20194;50.950;5.346;2022-12-18T11:50:24;31.83;;;14.27;;
33902;SDS011;20194;50.950;5.346;2022-12-18T11:52:53;33.28;;;14.93;;
33902;SDS011;20194;50.950;5.346;2022-12-18T11:55:22;27.05;;;12.90;;
33902;SDS011;20194;50.950;5.346;2022-12-18T12:03:55;28.52;;;12.25;;
33902;SDS011;20194;50.950;5.346;2022-12-18T12:09:37;29.35;;;13.25;;
33902;SDS011;20194;50.950;5.346;2022-12-18T12:15:13;32.30;;;13.07;;
33902;SDS011;20194;50.950;5.346;2022-12-18T12:31:31;30.90;;;13.43;;
33902;SDS011;20194;50.950;5.346;2022-12-18T12:39:36;42.90;;;14.27;;
33902;SDS011;20194;50.950;5.346;2022-12-18T12:42:05;29.65;;;13.82;;
33902;SDS011;20194;50.950;5.346;2022-12-18T12:44:58;31.30;;;12.90;;
33902;SDS011;20194;50.950;5.346;2022-12-18T12:47:30;34.20;;;13.90;;
33902;SDS011;20194;50.950;5.346;2022-12-18T12:50:02;32.67;;;13.15;;
33902;SDS011;20194;50.950;5.346;2022-12-18T12:52:32;31.90;;;14.40;;
33902;SDS011;20194;50.950;5.346;2022-12-18T12:55:05;35.35;;;14.57;;
33902;SDS011;20194;50.950;5.346;2022-12-18T12:57:38;35.03;;;15.18;;
33902;SDS011;20194;50.950;5.346;2022-12-18T13:00:10;37.65;;;15.30;;
33902;SDS011;20194;50.950;5.346;2022-12-18T13:02:47;34.60;;;15.10;;
33902;SDS011;20194;50.950;5.346;2022-12-18T13:05:23;33.53;;;15.05;;
33902;SDS011;20194;50.950;5.346;2022-12-18T13:08:10;41.70;;;16.42;;
33902;SDS011;20194;50.950;5.346;2022-12-18T13:10:47;34.38;;;15.27;;
33902;SDS011;20194;50.950;5.346;2022-12-18T13:13:13;34.33;;;15.55;;
33902;SDS011;20194;50.950;5.346;2022-12-18T13:15:44;39.80;;;14.65;;
33902;SDS011;20194;50.950;5.346;2022-12-18T13:23:28;34.85;;;14.98;;
33902;SDS011;20194;50.950;5.346;2022-12-18T13:31:11;59.67;;;22.80;;
33902;SDS011;20194;50.950;5.346;2022-12-18T13:41:39;36.45;;;16.67;;
33902;SDS011;20194;50.950;5.346;2022-12-18T13:46:57;40.40;;;16.33;;
33902;SDS011;20194;50.950;5.346;2022-12-18T13:52:16;43.20;;;16.58;;
33902;SDS011;20194;50.950;5.346;2022-12-18T13:54:45;42.78;;;18.58;;
33902;SDS011;20194;50.950;5.346;2022-12-18T13:57:29;39.38;;;16.45;;
33902;SDS011;20194;50.950;5.346;2022-12-18T14:00:16;41.90;;;17.95;;
33902;SDS011;20194;50.950;5.346;2022-12-18T14:02:49;39.30;;;15.02;;
33902;SDS011;20194;50.950;5.346;2022-12-18T14:05:31;99.25;;;39.92;;
33902;SDS011;20194;50.950;5.346;2022-12-18T14:08:04;85.78;;;35.78;;
33902;SDS011;20194;50.950;5.346;2022-12-18T14:10:35;43.35;;;18.98;;
33902;SDS011;20194;50.950;5.346;2022-12-18T14:13:05;41.47;;;18.08;;
33902;SDS011;20194;50.950;5.346;2022-12-18T14:15:34;38.60;;;17.15;;
33902;SDS011;20194;50.950;5.346;2022-12-18T14:20:45;46.38;;;16.45;;
33902;SDS011;20194;50.950;5.346;2022-12-18T14:23:28;45.65;;;18.75;;
33902;SDS011;20194;50.950;5.346;2022-12-18T14:26:22;52.30;;;18.70;;
33902;SDS011;20194;50.950;5.346;2022-12-18T14:28:47;48.53;;;18.27;;
33902;SDS011;20194;50.950;5.346;2022-12-18T14:31:23;50.92;;;18.05;;
33902;SDS011;20194;50.950;5.346;2022-12-18T14:33:51;50.42;;;20.83;;
33902;SDS011;20194;50.950;5.346;2022-12-18T14:36:18;46.05;;;18.42;;
33902;SDS011;20194;50.950;5.346;2022-12-18T14:38:52;50.85;;;20.17;;
33902;SDS011;20194;50.950;5.346;2022-12-18T14:41:20;58.40;;;21.05;;
33902;SDS011;20194;50.950;5.346;2022-12-18T14:43:47;53.53;;;19.42;;
33902;SDS011;20194;50.950;5.346;2022-12-18T14:49:02;43.88;;;17.15;;
33902;SDS011;20194;50.950;5.346;2022-12-18T14:51:28;58.13;;;19.15;;
33902;SDS011;20194;50.950;5.346;2022-12-18T14:53:57;47.92;;;17.92;;
33902;SDS011;20194;50.950;5.346;2022-12-18T14:56:32;40.33;;;17.70;;
33902;SDS011;20194;50.950;5.346;2022-12-18T15:03:54;38.20;;;17.15;;
33902;SDS011;20194;50.950;5.346;2022-12-18T15:06:25;38.30;;;16.60;;
33902;SDS011;20194;50.950;5.346;2022-12-18T15:08:54;37.60;;;16.40;;
33902;SDS011;20194;50.950;5.346;2022-12-18T15:11:33;45.35;;;17.70;;
33902;SDS011;20194;50.950;5.346;2022-12-18T15:14:21;36.65;;;16.08;;
33902;SDS011;20194;50.950;5.346;2022-12-18T15:16:50;41.72;;;18.15;;
33902;SDS011;20194;50.950;5.346;2022-12-18T15:19:17;40.70;;;17.83;;
33902;SDS011;20194;50.950;5.346;2022-12-18T15:21:45;43.88;;;18.92;;
33902;SDS011;20194;50.950;5.346;2022-12-18T15:24:18;47.17;;;19.73;;
33902;SDS011;20194;50.950;5.346;2022-12-18T15:26:49;41.78;;;17.75;;
33902;SDS011;20194;50.950;5.346;2022-12-18T15:29:17;43.00;;;18.92;;
33902;SDS011;20194;50.950;5.346;2022-12-18T15:31:57;44.85;;;19.15;;
33902;SDS011;20194;50.950;5.346;2022-12-18T15:34:24;50.92;;;24.52;;
33902;SDS011;20194;50.950;5.346;2022-12-18T15:36:51;52.85;;;25.20;;
33902;SDS011;20194;50.950;5.346;2022-12-18T15:39:17;49.22;;;22.42;;
33902;SDS011;20194;50.950;5.346;2022-12-18T15:41:43;46.63;;;21.00;;
33902;SDS011;20194;50.950;5.346;2022-12-18T15:44:29;43.72;;;19.38;;
33902;SDS011;20194;50.950;5.346;2022-12-18T15:46:55;44.40;;;19.50;;
33902;SDS011;20194;50.950;5.346;2022-12-18T15:49:21;41.20;;;18.55;;
33902;SDS011;20194;50.950;5.346;2022-12-18T15:51:56;47.60;;;20.15;;
33902;SDS011;20194;50.950;5.346;2022-12-18T15:54:24;49.05;;;21.23;;
33902;SDS011;20194;50.950;5.346;2022-12-18T15:57:11;51.28;;;21.00;;
33902;SDS011;20194;50.950;5.346;2022-12-18T15:59:50;57.33;;;24.38;;
33902;SDS011;20194;50.950;5.346;2022-12-18T16:02:23;52.38;;;23.17;;
33902;SDS011;20194;50.950;5.346;2022-12-18T16:04:49;49.70;;;21.17;;
33902;SDS011;20194;50.950;5.346;2022-12-18T16:07:16;52.72;;;22.42;;
33902;SDS011;20194;50.950;5.346;2022-12-18T16:09:42;51.60;;;20.27;;
33902;SDS011;20194;50.950;5.346;2022-12-18T16:12:18;47.97;;;21.40;;
33902;SDS011;20194;50.950;5.346;2022-12-18T16:14:47;52.20;;;21.02;;
33902;SDS011;20194;50.950;5.346;2022-12-18T16:17:13;55.10;;;22.77;;
33902;SDS011;20194;50.950;5.346;2022-12-18T16:19:39;62.25;;;22.85;;
33902;SDS011;20194;50.950;5.346;2022-12-18T16:22:16;62.97;;;25.70;;
33902;SDS011;20194;50.950;5.346;2022-12-18T16:24:53;58.35;;;25.98;;
33902;SDS011;20194;50.950;5.346;2022-12-18T16:27:20;58.83;;;22.98;;